Time;durP1;ratioP1;P1;durP2;ratioP2;P2;SDS_P1;SDS_P2;PMS_P1;PMS_P2;Temp;Humidity;BMP_temperature;BMP_pressure;BME280_temperature;BME280_humidity;BME280_pressure;Samples;Min_cycle;Max_cycle;Signal;HPM_P1;HPM_P2
2022/10/23 00:00:24;;;;;;;8.63;7.87;;;12.20;99.90;;;;;;6157348;23;20418;-82
2022/10/23 00:02:54;;;;;;;6.77;6.07;;;12.20;99.90;;;;;;6157896;23;20447;-82
2022/10/23 00:05:22;;;;;;;7.27;6.57;;;12.10;99.90;;;;;;6157392;23;20414;-82
2022/10/23 00:07:50;;;;;;;7.40;6.73;;;12.20;99.90;;;;;;6157775;23;20438;-82
2022/10/23 00:10:17;;;;;;;6.10;5.30;;;12.10;99.90;;;;;;6157827;23;20420;-82
2022/10/23 00:12:46;;;;;;;8.07;6.07;;;12.00;99.90;;;;;;6157860;23;20409;-82
2022/10/23 00:15:14;;;;;;;5.47;5.07;;;12.00;99.90;;;;;;6157620;23;20433;-82
2022/10/23 00:17:41;;;;;;;7.30;5.87;;;12.00;99.90;;;;;;6172514;23;20467;-82
2022/10/23 00:20:09;;;;;;;6.13;5.63;;;12.00;99.90;;;;;;6159594;23;20411;-81
2022/10/23 00:22:37;;;;;;;6.47;5.87;;;12.00;99.90;;;;;;6159938;23;20438;-82
2022/10/23 00:25:04;;;;;;;5.63;5.13;;;11.90;99.90;;;;;;6159955;23;20418;-82
2022/10/23 00:27:31;;;;;;;5.57;5.07;;;11.90;99.90;;;;;;6159738;23;20444;-82
2022/10/23 00:29:59;;;;;;;5.30;4.80;;;11.90;99.90;;;;;;6159980;23;20932;-82
2022/10/23 00:32:27;;;;;;;5.50;5.10;;;11.90;99.90;;;;;;6177464;23;20471;-80
2022/10/23 00:34:54;;;;;;;6.90;4.87;;;11.90;99.90;;;;;;6161813;23;20894;-82
2022/10/23 00:37:20;;;;;;;5.37;4.97;;;11.90;99.90;;;;;;6158949;23;20508;-82
2022/10/23 00:39:47;;;;;;;10.93;6.87;;;11.90;99.90;;;;;;6159802;23;20414;-82
2022/10/23 00:42:17;;;;;;;5.87;5.37;;;11.90;99.90;;;;;;6159369;23;20949;-81
2022/10/23 00:45:12;;;;;;;6.50;5.30;;;11.90;99.90;;;;;;6159904;23;20410;-82
2022/10/23 00:47:39;;;;;;;6.13;5.07;;;11.90;99.90;;;;;;6158879;23;20651;-82
2022/10/23 00:50:06;;;;;;;6.40;5.50;;;11.90;99.90;;;;;;6159520;23;20413;-82
2022/10/23 00:52:37;;;;;;;5.50;5.00;;;11.80;99.90;;;;;;6158935;23;20446;-82
2022/10/23 00:55:04;;;;;;;5.30;4.83;;;11.80;99.90;;;;;;6159934;23;20402;-82
2022/10/23 00:57:31;;;;;;;6.17;5.67;;;11.80;99.90;;;;;;6159584;23;20457;-81
2022/10/23 00:59:58;;;;;;;6.47;5.90;;;11.80;99.90;;;;;;6159209;23;20421;-82
2022/10/23 01:02:26;;;;;;;5.20;4.80;;;11.80;99.90;;;;;;6159480;23;20458;-82
2022/10/23 01:04:53;;;;;;;6.10;5.60;;;11.80;99.90;;;;;;6159301;23;20420;-82
2022/10/23 01:07:25;;;;;;;6.77;5.93;;;11.80;99.90;;;;;;6158943;23;20521;-82
2022/10/23 01:09:59;;;;;;;5.60;5.10;;;11.80;99.90;;;;;;6164281;23;20379;-82
2022/10/23 01:12:33;;;;;;;5.70;5.20;;;11.80;99.90;;;;;;6167791;23;20399;-81
2022/10/23 01:15:09;;;;;;;6.37;5.77;;;11.80;99.90;;;;;;6160259;23;20404;-81
2022/10/23 01:17:43;;;;;;;6.30;5.70;;;11.80;99.90;;;;;;6159836;23;20444;-82
2022/10/23 01:20:22;;;;;;;5.23;4.60;;;11.80;99.90;;;;;;6160335;23;20400;-82
2022/10/23 01:23:13;;;;;;;5.87;5.37;;;11.80;99.90;;;;;;6159780;23;20437;-82
2022/10/23 01:25:58;;;;;;;5.20;4.80;;;11.80;99.90;;;;;;6159886;23;20418;-82
2022/10/23 01:28:30;;;;;;;7.80;5.20;;;11.80;99.90;;;;;;6159053;23;20433;-81
2022/10/23 01:30:59;;;;;;;5.50;5.10;;;11.80;99.90;;;;;;6159647;23;20397;-81
2022/10/23 01:33:31;;;;;;;4.57;4.17;;;11.80;99.90;;;;;;6159175;23;20409;-82
2022/10/23 01:36:01;;;;;;;5.03;4.60;;;11.80;99.90;;;;;;6158891;23;20408;-82
2022/10/23 01:38:34;;;;;;;4.47;4.17;;;11.80;99.90;;;;;;6159116;23;20791;-82
2022/10/23 01:41:06;;;;;;;5.13;4.53;;;11.80;99.90;;;;;;6159311;23;20391;-81
2022/10/23 01:43:39;;;;;;;5.70;4.70;;;11.90;99.90;;;;;;6159788;23;20435;-82
2022/10/23 01:46:10;;;;;;;4.60;4.20;;;11.90;99.90;;;;;;6158921;23;20405;-82
2022/10/23 01:48:38;;;;;;;4.77;4.00;;;11.90;99.90;;;;;;6158553;23;20438;-82
2022/10/23 01:51:07;;;;;;;4.70;3.87;;;12.00;99.90;;;;;;6159020;23;20417;-82
2022/10/23 01:53:40;;;;;;;4.93;4.47;;;12.00;99.90;;;;;;6159549;23;20413;-81
2022/10/23 01:56:10;;;;;;;4.60;4.17;;;12.00;99.90;;;;;;6158985;23;20514;-82
2022/10/23 01:58:42;;;;;;;4.13;3.80;;;12.00;99.90;;;;;;6158520;23;20438;-82
2022/10/23 02:01:11;;;;;;;5.33;4.40;;;12.00;99.90;;;;;;6158992;23;20405;-82
2022/10/23 02:03:39;;;;;;;4.50;4.10;;;12.00;99.90;;;;;;6159018;23;20461;-81
2022/10/23 02:06:06;;;;;;;3.77;3.47;;;12.00;99.90;;;;;;6161111;23;20931;-82
2022/10/23 02:08:33;;;;;;;6.20;4.20;;;12.00;99.90;;;;;;6158620;23;20440;-82
2022/10/23 02:11:06;;;;;;;4.00;3.70;;;12.00;99.90;;;;;;6158866;23;20417;-83
2022/10/23 02:13:37;;;;;;;3.63;3.43;;;12.00;99.90;;;;;;6159175;23;20394;-82
2022/10/23 02:16:14;;;;;;;3.87;3.40;;;12.00;99.90;;;;;;6158956;23;20420;-82
2022/10/23 02:18:46;;;;;;;4.00;3.50;;;12.00;99.90;;;;;;6158435;23;20437;-82
2022/10/23 02:21:18;;;;;;;6.80;3.33;;;12.00;99.90;;;;;;6158305;23;20408;-82
2022/10/23 02:23:50;;;;;;;4.43;4.03;;;12.00;99.90;;;;;;6158817;23;20434;-82
2022/10/23 02:26:24;;;;;;;4.47;4.17;;;12.00;99.90;;;;;;6159132;23;20404;-82
2022/10/23 02:28:55;;;;;;;4.80;4.37;;;12.00;99.90;;;;;;6157684;23;20440;-82
2022/10/23 02:31:24;;;;;;;3.30;3.10;;;12.00;99.90;;;;;;6158062;23;20420;-82
2022/10/23 02:33:51;;;;;;;3.57;3.37;;;12.00;99.90;;;;;;6158499;23;20437;-82
2022/10/23 02:36:19;;;;;;;5.80;3.60;;;12.00;99.90;;;;;;6158131;23;20410;-82
2022/10/23 02:38:46;;;;;;;3.83;3.63;;;12.10;99.90;;;;;;6157634;23;20442;-82
2022/10/23 02:41:23;;;;;;;3.63;3.43;;;12.10;99.90;;;;;;6157671;23;20413;-82
2022/10/23 02:44:00;;;;;;;4.37;4.07;;;12.10;99.90;;;;;;6157802;23;20426;-82
2022/10/23 02:46:38;;;;;;;3.53;3.23;;;12.20;99.90;;;;;;6158299;23;20400;-82
2022/10/23 02:49:13;;;;;;;3.20;3.00;;;12.20;99.90;;;;;;6158067;23;20422;-82
2022/10/23 02:51:51;;;;;;;4.30;3.90;;;12.20;99.90;;;;;;6158260;23;20730;-82
2022/10/23 02:54:28;;;;;;;4.47;4.10;;;12.30;99.90;;;;;;6158293;23;20403;-82
2022/10/23 02:57:01;;;;;;;4.20;3.90;;;12.30;99.90;;;;;;6164257;23;20469;-80
2022/10/23 02:59:35;;;;;;;5.67;3.37;;;12.30;99.90;;;;;;6180109;23;20490;-82
2022/10/23 03:02:08;;;;;;;4.47;3.00;;;12.30;99.90;;;;;;6158560;23;20865;-82
2022/10/23 03:04:37;;;;;;;3.33;3.00;;;12.30;99.90;;;;;;6158256;23;20394;-82
2022/10/23 03:07:03;;;;;;;4.00;3.67;;;12.30;99.90;;;;;;6158474;23;20440;-82
2022/10/23 03:09:31;;;;;;;3.63;2.90;;;12.30;99.90;;;;;;6158251;23;20410;-82
2022/10/23 03:11:58;;;;;;;3.37;3.13;;;12.30;99.90;;;;;;6157803;23;20424;-82
2022/10/23 03:14:24;;;;;;;4.50;3.20;;;12.20;99.90;;;;;;6158167;23;20424;-82
2022/10/23 03:16:51;;;;;;;4.20;3.90;;;12.20;99.90;;;;;;6158628;23;20413;-82
2022/10/23 03:19:19;;;;;;;4.47;3.80;;;12.20;99.90;;;;;;6157069;23;20905;-82
2022/10/23 03:21:46;;;;;;;4.20;3.80;;;12.20;99.90;;;;;;6158152;23;20406;-82
2022/10/23 03:24:13;;;;;;;4.10;3.80;;;12.10;99.90;;;;;;6157888;23;20453;-82
2022/10/23 03:26:39;;;;;;;4.17;3.67;;;12.10;99.90;;;;;;6157832;23;20917;-82
2022/10/23 03:29:06;;;;;;;7.03;3.53;;;12.10;99.90;;;;;;6158749;23;20496;-82
2022/10/23 03:31:33;;;;;;;3.50;3.20;;;12.10;99.90;;;;;;6159137;23;20719;-82
2022/10/23 03:34:00;;;;;;;5.63;3.70;;;12.10;99.90;;;;;;6158511;23;20413;-81
2022/10/23 03:36:28;;;;;;;6.90;4.43;;;12.10;99.90;;;;;;6157718;23;20422;-81
2022/10/23 03:38:55;;;;;;;4.37;3.97;;;12.10;99.90;;;;;;6157693;23;20975;-82
2022/10/23 03:41:22;;;;;;;3.80;3.30;;;12.10;99.90;;;;;;6158030;23;20453;-82
2022/10/23 03:43:48;;;;;;;5.20;3.50;;;12.10;99.90;;;;;;6157460;23;20446;-81
2022/10/23 03:46:15;;;;;;;3.83;3.60;;;12.10;99.90;;;;;;6158439;23;20414;-82
2022/10/23 03:48:42;;;;;;;8.33;4.53;;;12.10;99.90;;;;;;6157566;23;20438;-82
2022/10/23 03:51:08;;;;;;;7.47;6.73;;;12.20;99.90;;;;;;6157682;23;20422;-82
2022/10/23 03:53:37;;;;;;;4.60;4.30;;;12.20;99.90;;;;;;6171285;23;20423;-82
2022/10/23 03:56:04;;;;;;;4.50;4.20;;;12.20;99.90;;;;;;6158243;23;20418;-82
2022/10/23 03:58:31;;;;;;;5.73;5.33;;;12.30;99.90;;;;;;6158623;23;20756;-82
2022/10/23 04:00:57;;;;;;;5.73;5.37;;;12.30;99.90;;;;;;6158408;23;20797;-82
2022/10/23 04:03:24;;;;;;;4.63;4.33;;;12.30;99.90;;;;;;6159386;23;20443;-82
2022/10/23 04:05:51;;;;;;;4.17;3.87;;;12.30;99.90;;;;;;6158987;23;20805;-82
2022/10/23 04:08:18;;;;;;;4.60;4.30;;;12.30;99.90;;;;;;6158083;23;20431;-82
2022/10/23 04:10:47;;;;;;;4.93;4.20;;;12.30;99.90;;;;;;6155923;23;20414;-81
2022/10/23 04:13:13;;;;;;;4.07;3.77;;;12.20;99.90;;;;;;6155132;23;20417;-81
2022/10/23 04:15:40;;;;;;;5.00;4.07;;;12.20;99.90;;;;;;6155122;23;20933;-82
2022/10/23 04:18:07;;;;;;;4.23;3.93;;;12.20;99.90;;;;;;6154993;23;20437;-81
2022/10/23 04:20:34;;;;;;;4.77;4.40;;;12.10;99.90;;;;;;6155719;23;20418;-82
2022/10/23 04:23:00;;;;;;;5.47;4.50;;;12.10;99.90;;;;;;6155328;23;20450;-81
2022/10/23 04:25:27;;;;;;;4.40;4.10;;;12.10;99.90;;;;;;6155674;23;20422;-80
2022/10/23 04:27:55;;;;;;;5.63;5.23;;;12.10;99.90;;;;;;6154765;23;20449;-81
2022/10/23 04:30:22;;;;;;;5.33;4.80;;;12.10;99.90;;;;;;6156527;23;20410;-83
2022/10/23 04:32:50;;;;;;;5.63;5.03;;;12.10;99.90;;;;;;6156946;23;20741;-83
2022/10/23 04:35:17;;;;;;;5.20;4.80;;;12.10;99.90;;;;;;6157291;23;20418;-83
2022/10/23 04:37:44;;;;;;;5.90;4.43;;;12.10;99.90;;;;;;6156238;23;20413;-83
2022/10/23 04:40:11;;;;;;;6.63;5.27;;;12.10;99.90;;;;;;6157061;23;20421;-83
2022/10/23 04:42:38;;;;;;;17.93;5.83;;;12.10;99.90;;;;;;6156641;23;20417;-83
2022/10/23 04:45:07;;;;;;;5.03;4.63;;;12.10;99.90;;;;;;6156837;23;20420;-83
2022/10/23 04:47:34;;;;;;;10.90;6.20;;;12.10;99.90;;;;;;6156002;23;20434;-82
2022/10/23 04:50:00;;;;;;;6.40;4.97;;;12.10;99.90;;;;;;6156154;23;20414;-82
2022/10/23 04:52:27;;;;;;;5.13;4.73;;;12.10;99.90;;;;;;6156393;23;20409;-82
2022/10/23 04:54:54;;;;;;;5.37;4.90;;;12.20;99.90;;;;;;6156535;23;20414;-82
2022/10/23 04:57:21;;;;;;;5.00;4.67;;;12.20;99.90;;;;;;6156134;23;20434;-82
2022/10/23 04:59:47;;;;;;;7.00;4.90;;;12.10;99.90;;;;;;6156788;23;20410;-82
2022/10/23 05:02:15;;;;;;;4.13;3.80;;;12.20;99.90;;;;;;6157125;23;20414;-81
2022/10/23 05:04:42;;;;;;;4.80;4.33;;;12.20;99.90;;;;;;6157642;23;20441;-82
2022/10/23 05:07:09;;;;;;;5.27;4.40;;;12.20;99.90;;;;;;6157223;23;21050;-82
2022/10/23 05:09:36;;;;;;;5.80;4.97;;;12.20;99.90;;;;;;6157193;23;20415;-83
2022/10/23 05:12:02;;;;;;;5.13;4.73;;;12.20;99.90;;;;;;6157609;23;20446;-82
2022/10/23 05:14:31;;;;;;;4.67;4.27;;;12.30;99.90;;;;;;6176096;23;20481;-82
2022/10/23 05:17:04;;;;;;;7.07;4.97;;;12.30;99.90;;;;;;6176388;23;20478;-83
2022/10/23 05:19:36;;;;;;;7.47;4.77;;;12.30;99.90;;;;;;6175680;23;20468;-83
2022/10/23 05:22:10;;;;;;;5.00;4.40;;;12.30;99.90;;;;;;6176538;23;20406;-81
2022/10/23 05:24:39;;;;;;;4.40;4.00;;;12.30;99.90;;;;;;6176112;23;20796;-82
2022/10/23 05:27:07;;;;;;;4.20;3.90;;;12.30;99.90;;;;;;6175417;23;20438;-81
2022/10/23 05:29:34;;;;;;;4.60;4.20;;;12.30;99.90;;;;;;6175487;23;20414;-82
2022/10/23 05:32:05;;;;;;;4.33;4.03;;;12.30;99.90;;;;;;6176065;23;20406;-82
2022/10/23 05:34:37;;;;;;;5.40;4.90;;;12.40;99.90;;;;;;6176647;23;20452;-81
2022/10/23 05:39:32;;;;;;;4.57;4.17;;;12.40;99.90;;;;;;6101665;23;20404;-82
2022/10/23 05:41:59;;;;;;;3.70;3.40;;;12.50;99.90;;;;;;6101251;23;20693;-82
2022/10/23 05:44:26;;;;;;;3.43;3.23;;;12.50;99.90;;;;;;6102515;23;20444;-82
2022/10/23 05:46:52;;;;;;;5.93;4.30;;;12.50;99.90;;;;;;6101084;23;20416;-82
2022/10/23 05:49:19;;;;;;;5.40;4.03;;;12.40;99.90;;;;;;6129755;23;20477;-81
2022/10/23 05:51:47;;;;;;;4.03;3.73;;;12.40;99.90;;;;;;6133993;23;20417;-82
2022/10/23 05:54:14;;;;;;;3.20;2.90;;;12.40;99.90;;;;;;6134932;23;20421;-82
2022/10/23 05:56:41;;;;;;;4.83;3.50;;;12.40;99.90;;;;;;6131552;23;20415;-82
2022/10/23 05:59:08;;;;;;;3.70;3.50;;;12.40;99.90;;;;;;6131370;23;20458;-82
2022/10/23 06:01:36;;;;;;;3.67;3.37;;;12.40;99.90;;;;;;6140528;23;20906;-83
2022/10/23 06:04:04;;;;;;;3.00;2.80;;;12.40;99.90;;;;;;6131883;23;20783;-83
2022/10/23 06:06:31;;;;;;;4.53;4.10;;;12.50;99.90;;;;;;6133274;23;20443;-83
2022/10/23 06:08:59;;;;;;;3.70;3.40;;;12.50;99.90;;;;;;6132556;23;20518;-83
2022/10/23 06:11:26;;;;;;;3.67;3.10;;;12.50;99.90;;;;;;6134218;23;20411;-83
2022/10/23 06:13:53;;;;;;;2.83;2.60;;;12.50;99.90;;;;;;6133726;23;20404;-83
2022/10/23 06:16:23;;;;;;;3.17;2.87;;;12.50;99.90;;;;;;6137842;23;20490;-83
2022/10/23 06:18:50;;;;;;;5.33;2.73;;;12.60;99.90;;;;;;6135732;23;20538;-82
2022/10/23 06:21:17;;;;;;;4.13;2.40;;;12.70;99.90;;;;;;6134132;23;20414;-83
2022/10/23 06:23:45;;;;;;;5.70;2.67;;;12.70;99.90;;;;;;6133635;23;20829;-83
2022/10/23 06:26:15;;;;;;;3.33;3.03;;;12.80;99.90;;;;;;6133868;23;20905;-83
2022/10/23 06:28:42;;;;;;;3.77;3.43;;;12.80;99.90;;;;;;6133368;23;20439;-82
2022/10/23 06:31:11;;;;;;;2.67;2.57;;;12.80;99.90;;;;;;6134459;23;20419;-83
2022/10/23 06:33:38;;;;;;;6.23;3.10;;;12.90;99.90;;;;;;6133257;23;20438;-83
2022/10/23 06:36:07;;;;;;;4.53;4.13;;;12.90;99.90;;;;;;6134105;23;20423;-83
2022/10/23 06:38:36;;;;;;;3.40;3.10;;;13.00;99.90;;;;;;6150345;23;20530;-83
2022/10/23 06:41:03;;;;;;;3.90;3.40;;;13.00;99.90;;;;;;6161740;23;20505;-83
2022/10/23 06:43:32;;;;;;;3.60;3.30;;;13.00;99.90;;;;;;6161998;23;20704;-83
2022/10/23 06:46:01;;;;;;;3.57;3.23;;;13.10;99.90;;;;;;6161083;23;20414;-83
2022/10/23 06:48:28;;;;;;;2.73;2.63;;;13.10;99.90;;;;;;6160982;23;20431;-83
2022/10/23 06:50:54;;;;;;;5.30;5.00;;;13.10;99.90;;;;;;6160691;23;20407;-83
2022/10/23 06:53:22;;;;;;;5.00;4.30;;;13.10;99.90;;;;;;6161495;23;20407;-82
2022/10/23 06:55:49;;;;;;;6.00;5.50;;;13.20;99.90;;;;;;6174354;23;20434;-82
2022/10/23 06:58:16;;;;;;;5.87;5.37;;;13.20;99.90;;;;;;6164372;23;20495;-83
2022/10/23 07:00:44;;;;;;;6.70;6.03;;;13.30;99.90;;;;;;6161331;23;20741;-83
2022/10/23 07:03:11;;;;;;;7.03;6.00;;;13.40;99.90;;;;;;6160535;23;20412;-82
2022/10/23 07:05:37;;;;;;;8.03;5.90;;;13.40;99.90;;;;;;6161782;23;20493;-83
2022/10/23 07:08:05;;;;;;;6.80;6.20;;;13.40;99.90;;;;;;6160875;23;20430;-83
2022/10/23 07:10:35;;;;;;;7.00;6.43;;;13.40;99.90;;;;;;6161393;23;20411;-82
2022/10/23 07:13:02;;;;;;;5.80;5.40;;;13.50;99.90;;;;;;6161470;23;20435;-83
2022/10/23 07:15:29;;;;;;;7.33;6.70;;;13.60;99.90;;;;;;6161600;23;20411;-82
2022/10/23 07:17:57;;;;;;;6.73;6.17;;;13.60;99.90;;;;;;6161039;23;20496;-83
2022/10/23 07:20:24;;;;;;;7.30;5.50;;;13.60;99.90;;;;;;6161303;23;20732;-82
2022/10/23 07:22:52;;;;;;;6.83;5.30;;;13.70;99.90;;;;;;6160681;23;20424;-81
2022/10/23 07:25:18;;;;;;;5.90;5.37;;;13.80;99.90;;;;;;6160380;23;21007;-82
2022/10/23 07:27:45;;;;;;;5.77;5.27;;;13.80;99.90;;;;;;6161165;23;20438;-82
2022/10/23 07:30:13;;;;;;;5.33;4.93;;;13.90;99.90;;;;;;6161588;23;20498;-82
2022/10/23 07:32:41;;;;;;;5.70;4.50;;;14.00;99.90;;;;;;6161968;23;20491;-83
2022/10/23 07:35:11;;;;;;;4.30;4.00;;;14.00;99.90;;;;;;6161051;23;20413;-83
2022/10/23 07:37:37;;;;;;;4.23;3.83;;;14.10;99.90;;;;;;6161269;23;20945;-83
2022/10/23 07:40:05;;;;;;;5.67;3.47;;;14.20;99.90;;;;;;6162050;23;20400;-82
2022/10/23 07:42:32;;;;;;;4.37;3.97;;;14.30;99.90;;;;;;6160863;23;20411;-82
2022/10/23 07:44:59;;;;;;;4.40;3.90;;;14.40;99.90;;;;;;6161458;23;20444;-83
2022/10/23 07:47:26;;;;;;;5.00;3.93;;;14.50;99.90;;;;;;6160895;23;20431;-83
2022/10/23 07:49:52;;;;;;;3.50;3.20;;;14.50;99.90;;;;;;6166591;23;20416;-82
2022/10/23 07:52:21;;;;;;;4.10;3.37;;;14.60;99.90;;;;;;6166856;23;20420;-82
2022/10/23 07:54:51;;;;;;;5.37;2.67;;;14.70;99.90;;;;;;6162055;23;20407;-82
2022/10/23 07:57:18;;;;;;;3.00;1.73;;;14.80;99.90;;;;;;6161927;23;20429;-82
2022/10/23 07:59:45;;;;;;;2.60;2.40;;;14.90;99.90;;;;;;6160436;23;20425;-83
2022/10/23 08:02:13;;;;;;;2.00;1.90;;;15.00;99.90;;;;;;6161378;23;20425;-83
2022/10/23 08:04:40;;;;;;;3.90;2.40;;;15.10;99.90;;;;;;6160815;23;20451;-83
2022/10/23 08:07:06;;;;;;;4.90;2.63;;;15.20;99.90;;;;;;6161513;23;20413;-83
2022/10/23 08:09:36;;;;;;;4.13;3.10;;;15.20;99.90;;;;;;6160671;23;20411;-82
2022/10/23 08:12:03;;;;;;;3.40;2.57;;;15.30;99.90;;;;;;6160978;23;20430;-83
2022/10/23 08:14:30;;;;;;;2.73;2.50;;;15.40;99.90;;;;;;6161101;23;20416;-83
2022/10/23 08:16:57;;;;;;;2.77;2.57;;;15.50;99.90;;;;;;6161843;23;20783;-83
2022/10/23 08:19:24;;;;;;;2.60;2.40;;;15.60;99.90;;;;;;6160403;23;20450;-83
2022/10/23 08:21:53;;;;;;;2.60;2.40;;;15.70;99.90;;;;;;6160909;23;20437;-83
2022/10/23 08:24:20;;;;;;;2.80;2.60;;;15.80;99.90;;;;;;6161196;23;20449;-82
2022/10/23 08:27:04;;;;;;;2.70;2.43;;;15.90;99.90;;;;;;6156739;23;20450;-85
2022/10/23 08:29:52;;;;;;;2.53;2.33;;;16.10;99.90;;;;;;6149579;23;20890;-85
2022/10/23 08:32:19;;;;;;;2.13;1.90;;;16.30;99.90;;;;;;6154534;23;20484;-86
2022/10/23 08:34:46;;;;;;;1.70;1.60;;;16.40;99.90;;;;;;6154533;23;20436;-86
2022/10/23 08:37:13;;;;;;;1.83;1.67;;;16.40;99.90;;;;;;6154499;23;20489;-86
2022/10/23 08:39:39;;;;;;;2.30;2.10;;;16.60;99.90;;;;;;6156059;23;20389;-85
2022/10/23 08:42:19;;;;;;;1.87;1.60;;;16.60;99.90;;;;;;6158388;23;20414;-84
2022/10/23 08:44:52;;;;;;;2.90;1.90;;;16.80;99.90;;;;;;6165572;23;20430;-84
2022/10/23 08:47:26;;;;;;;1.73;1.53;;;16.80;99.90;;;;;;6167669;23;20396;-86
2022/10/23 08:55:38;;;;;;;3.00;2.70;;;16.80;99.90;;;;;;6088504;23;20416;-84
2022/10/23 08:58:17;;;;;;;1.90;1.80;;;16.90;99.90;;;;;;6158872;23;20438;-84
2022/10/23 09:01:06;;;;;;;3.13;1.97;;;16.90;99.90;;;;;;6159258;23;20420;-84
2022/10/23 09:03:50;;;;;;;2.77;2.13;;;16.90;99.90;;;;;;6154658;23;20412;-84
2022/10/23 09:06:48;;;;;;;1.70;1.60;;;16.90;99.90;;;;;;6159798;23;20399;-83
2022/10/23 09:09:49;;;;;;;2.23;1.77;;;16.90;99.90;;;;;;6159099;23;20443;-84
2022/10/23 09:12:20;;;;;;;1.50;1.40;;;17.00;99.90;;;;;;6160334;23;20384;-85
2022/10/23 09:15:10;;;;;;;1.47;1.37;;;17.10;99.90;;;;;;6160404;23;20385;-83
2022/10/23 09:17:39;;;;;;;3.73;1.50;;;17.10;99.90;;;;;;6140500;23;20450;-82
2022/10/23 09:20:16;;;;;;;1.30;1.20;;;17.30;99.90;;;;;;6161236;23;20795;-84
2022/10/23 09:22:44;;;;;;;1.60;1.23;;;17.40;99.90;;;;;;6159694;23;20407;-84
2022/10/23 09:25:16;;;;;;;1.20;1.20;;;17.50;99.90;;;;;;6159014;23;20445;-84
2022/10/23 09:27:48;;;;;;;2.47;1.00;;;17.60;99.90;;;;;;6157358;23;20773;-84
2022/10/23 09:30:28;;;;;;;1.80;1.50;;;17.70;99.90;;;;;;6158361;23;20405;-84
2022/10/23 09:32:55;;;;;;;1.50;0.90;;;17.90;99.90;;;;;;6158279;23;20501;-84
2022/10/23 09:35:23;;;;;;;1.10;0.97;;;18.00;99.90;;;;;;6158567;23;20928;-84
2022/10/23 09:37:55;;;;;;;1.07;1.07;;;18.10;99.90;;;;;;6157375;23;20983;-84
2022/10/23 09:40:55;;;;;;;0.93;0.93;;;18.30;99.90;;;;;;6165489;23;20457;-84
2022/10/23 09:43:26;;;;;;;1.40;1.30;;;18.50;99.90;;;;;;6159981;23;20425;-85
2022/10/23 09:45:59;;;;;;;1.20;0.83;;;18.70;99.90;;;;;;6162668;23;20434;-84
2022/10/23 09:48:27;;;;;;;1.30;1.20;;;19.00;99.90;;;;;;6162306;23;20430;-85
2022/10/23 09:50:57;;;;;;;2.40;1.20;;;19.20;99.90;;;;;;6161029;23;20437;-84
2022/10/23 09:53:32;;;;;;;1.57;1.30;;;19.30;99.90;;;;;;6159469;23;20414;-83
2022/10/23 09:56:02;;;;;;;1.10;0.90;;;19.50;99.90;;;;;;6158435;23;20888;-83
2022/10/23 09:58:35;;;;;;;0.77;0.77;;;19.60;99.90;;;;;;6159336;23;20464;-84
2022/10/23 10:01:04;;;;;;;2.77;0.80;;;19.80;99.90;;;;;;6160248;23;20379;-84
2022/10/23 10:03:31;;;;;;;1.00;0.90;;;19.90;99.90;;;;;;6159750;23;20407;-84
2022/10/23 10:06:01;;;;;;;1.07;1.00;;;20.20;99.90;;;;;;6160361;23;20638;-84
2022/10/23 10:11:41;;;;;;;2.90;1.17;;;20.70;99.90;;;;;;6151143;23;20529;-84
2022/10/23 10:14:58;;;;;;;1.33;0.90;;;20.90;99.90;;;;;;6154273;23;20411;-85
2022/10/23 10:18:04;;;;;;;1.23;1.00;;;21.20;99.30;;;;;;6156137;23;20496;-84
2022/10/23 10:20:55;;;;;;;1.40;0.90;;;21.40;98.80;;;;;;6156171;23;20813;-83
2022/10/23 10:23:45;;;;;;;1.87;0.97;;;21.40;98.30;;;;;;6157382;23;20447;-83
2022/10/23 10:26:25;;;;;;;1.47;0.90;;;21.40;97.80;;;;;;6156406;23;20393;-84
2022/10/23 10:29:18;;;;;;;1.67;1.10;;;21.40;97.80;;;;;;6154569;23;20438;-84
2022/10/23 10:39:14;;;;;;;1.27;1.17;;;22.00;97.70;;;;;;6060230;23;20494;-84
2022/10/23 10:42:19;;;;;;;2.17;1.10;;;22.40;97.20;;;;;;6155132;23;20427;-85
2022/10/23 10:45:17;;;;;;;0.50;0.50;;;22.60;96.60;;;;;;6103373;23;20509;-84
2022/10/23 11:05:38;;;;;;;1.23;1.13;;;23.40;94.40;;;;;;5901727;24;20935;-87
2022/10/23 13:09:50;;;;;;;1.50;1.40;;;29.70;79.10;;;;;;5792615;24;20835;-85
2022/10/23 13:12:23;;;;;;;1.60;1.40;;;30.30;75.20;;;;;;5843494;24;20465;-85
2022/10/23 13:15:02;;;;;;;1.27;1.10;;;30.80;73.30;;;;;;6067448;23;20763;-85
2022/10/23 13:17:45;;;;;;;1.50;1.40;;;31.40;72.10;;;;;;6125272;23;20915;-85
2022/10/23 13:20:23;;;;;;;2.00;1.67;;;32.00;70.80;;;;;;6125735;23;20423;-85
2022/10/23 13:23:01;;;;;;;1.40;1.30;;;32.60;68.80;;;;;;6125557;23;20427;-85
2022/10/23 13:25:33;;;;;;;1.33;1.23;;;33.00;66.40;;;;;;6126054;23;20418;-85
2022/10/23 13:28:43;;;;;;;1.43;1.33;;;33.30;65.30;;;;;;6126075;23;20526;-85
2022/10/23 13:31:48;;;;;;;1.33;1.23;;;33.50;64.30;;;;;;6125498;23;20480;-85
2022/10/23 13:34:37;;;;;;;2.30;1.90;;;33.20;63.90;;;;;;6125866;23;20922;-85
2022/10/23 13:37:23;;;;;;;2.23;1.60;;;32.80;64.80;;;;;;6124492;23;20486;-85
2022/10/23 13:40:00;;;;;;;3.63;1.60;;;32.30;65.70;;;;;;6125712;23;20414;-85
2022/10/23 13:42:29;;;;;;;1.33;1.33;;;32.10;66.60;;;;;;6125710;23;20913;-84
2022/10/23 13:45:04;;;;;;;3.23;1.67;;;31.70;66.00;;;;;;6126861;23;20416;-85
2022/10/23 13:53:37;;;;;;;1.90;1.67;;;30.10;70.90;;;;;;6036882;23;20411;-84
2022/10/23 13:56:10;;;;;;;1.40;1.30;;;29.50;73.30;;;;;;6113873;23;20450;-84
2022/10/23 13:59:08;;;;;;;3.13;1.90;;;28.90;75.60;;;;;;6130450;23;20454;-85
2022/10/23 14:05:11;;;;;;;1.50;1.40;;;28.00;76.80;;;;;;6154461;23;20410;-85
2022/10/23 14:07:38;;;;;;;2.63;1.80;;;27.50;78.60;;;;;;6166598;23;20433;-85
2022/10/23 14:10:06;;;;;;;2.10;1.90;;;27.10;80.00;;;;;;6164903;23;20742;-85
2022/10/23 14:12:39;;;;;;;2.97;1.90;;;26.70;81.50;;;;;;6157228;23;20405;-85
2022/10/23 14:15:09;;;;;;;2.53;2.17;;;26.30;84.50;;;;;;6157189;23;20510;-84
2022/10/23 14:17:35;;;;;;;2.63;1.77;;;25.90;86.50;;;;;;6156523;23;20445;-84
2022/10/23 14:20:03;;;;;;;8.17;2.60;;;25.60;88.10;;;;;;6156917;23;20945;-84
2022/10/23 14:22:29;;;;;;;4.30;2.07;;;25.20;89.90;;;;;;6157282;23;20411;-85
2022/10/23 14:24:56;;;;;;;1.70;1.60;;;25.00;91.00;;;;;;6156860;23;20430;-84
2022/10/23 14:27:23;;;;;;;3.17;1.60;;;24.70;91.60;;;;;;6157411;23;20411;-84
2022/10/23 14:29:50;;;;;;;2.40;2.00;;;24.50;92.10;;;;;;6156363;23;20498;-85
2022/10/23 14:32:19;;;;;;;3.10;2.43;;;24.30;92.40;;;;;;6156495;23;20470;-87
2022/10/23 14:34:51;;;;;;;2.50;1.97;;;24.10;93.20;;;;;;6156065;23;20421;-84
2022/10/23 14:37:18;;;;;;;4.33;4.03;;;24.00;93.70;;;;;;6156353;23;20387;-85
2022/10/23 14:39:45;;;;;;;3.97;3.67;;;23.80;94.40;;;;;;6156328;23;20467;-85
2022/10/23 14:42:12;;;;;;;3.57;3.30;;;23.60;95.30;;;;;;6156517;23;20418;-84
2022/10/23 14:44:39;;;;;;;2.77;2.50;;;23.40;96.20;;;;;;6156462;23;20796;-85
2022/10/23 14:47:06;;;;;;;3.87;2.70;;;23.20;96.90;;;;;;6156632;23;20466;-85
2022/10/23 14:49:35;;;;;;;3.00;2.70;;;23.10;97.30;;;;;;6155702;23;20439;-84
2022/10/23 14:52:02;;;;;;;3.17;2.67;;;23.00;97.80;;;;;;6156148;23;20468;-84
2022/10/23 14:54:30;;;;;;;2.80;2.60;;;22.90;98.40;;;;;;6130016;23;20490;-85
2022/10/23 14:56:57;;;;;;;6.17;2.20;;;22.80;98.40;;;;;;6156070;23;20776;-85
2022/10/23 14:59:24;;;;;;;3.97;2.40;;;22.70;99.00;;;;;;6155715;23;20440;-85
2022/10/23 15:01:51;;;;;;;2.63;2.43;;;22.60;99.50;;;;;;6156446;23;21063;-85
2022/10/23 15:04:17;;;;;;;2.47;2.23;;;22.50;99.80;;;;;;6156602;23;20508;-85
2022/10/23 15:06:46;;;;;;;5.17;2.83;;;22.40;99.90;;;;;;6156438;23;20408;-85
2022/10/23 15:09:13;;;;;;;2.83;2.60;;;22.40;99.90;;;;;;6155010;23;20494;-85
2022/10/23 15:11:40;;;;;;;3.10;2.50;;;22.40;99.90;;;;;;6156075;23;20496;-85
2022/10/23 15:14:07;;;;;;;3.03;2.33;;;22.40;99.90;;;;;;6156104;23;20407;-85
2022/10/23 15:16:39;;;;;;;3.13;2.10;;;22.30;99.90;;;;;;6155674;23;20995;-85
2022/10/23 15:19:06;;;;;;;2.43;2.23;;;22.30;99.90;;;;;;6155478;23;20437;-85
2022/10/23 15:21:33;;;;;;;3.10;2.77;;;22.20;99.90;;;;;;6155582;23;20413;-85
2022/10/23 15:24:02;;;;;;;4.30;2.77;;;22.10;99.90;;;;;;6155707;23;20420;-85
2022/10/23 15:26:29;;;;;;;10.00;3.60;;;22.10;99.90;;;;;;6155615;23;20444;-85
2022/10/23 15:28:58;;;;;;;3.87;2.53;;;22.10;99.90;;;;;;6154201;23;20439;-86
2022/10/23 15:31:52;;;;;;;3.20;2.73;;;22.10;99.90;;;;;;6154698;23;20419;-85
2022/10/23 15:34:21;;;;;;;12.53;6.27;;;22.00;99.90;;;;;;6128544;23;20429;-85
2022/10/23 15:36:49;;;;;;;9.93;4.07;;;22.00;99.90;;;;;;6154508;23;20446;-84
2022/10/23 15:39:20;;;;;;;6.67;3.90;;;22.00;99.90;;;;;;6156856;23;20433;-84
2022/10/23 15:41:49;;;;;;;4.60;3.67;;;21.90;99.90;;;;;;6156976;23;20425;-85
2022/10/23 15:44:18;;;;;;;5.20;3.57;;;21.90;99.90;;;;;;6156769;23;20412;-84
2022/10/23 15:46:45;;;;;;;3.50;2.83;;;21.90;99.90;;;;;;6155806;23;20412;-83
2022/10/23 15:49:12;;;;;;;4.03;3.70;;;21.80;99.90;;;;;;6154629;23;20446;-83
2022/10/23 15:51:40;;;;;;;3.83;2.47;;;21.70;99.90;;;;;;6154571;23;20417;-84